createdAt,value
2023-04-30T00:01:07.609Z,66.16
2023-04-30T00:03:40.637Z,66.05
2023-04-30T00:06:13.477Z,68.67
2023-04-30T00:08:46.243Z,66.32
2023-04-30T00:11:19.153Z,65.65
2023-04-30T00:13:52.477Z,69.62
2023-04-30T00:16:27.041Z,65.18
2023-04-30T00:18:59.887Z,67.29
2023-04-30T00:21:38.458Z,67.09
2023-04-30T00:24:11.206Z,67.22
2023-04-30T00:26:44.095Z,67.94
2023-04-30T00:29:16.918Z,70.45
2023-04-30T00:31:51.164Z,68.33
2023-04-30T00:34:23.971Z,65.22
2023-04-30T00:36:56.720Z,68.13
2023-04-30T00:39:29.653Z,68.67
2023-04-30T00:42:02.604Z,68.28
2023-04-30T00:44:35.668Z,68.46
2023-04-30T00:47:10.250Z,70.69
2023-04-30T00:49:42.956Z,67.52
2023-04-30T00:52:16.031Z,66.93
2023-04-30T00:54:50.660Z,67.70
2023-04-30T00:57:23.776Z,65.35
2023-04-30T00:59:56.784Z,66.34
2023-04-30T01:02:31.676Z,68.94
2023-04-30T01:05:05.006Z,65.85
2023-04-30T01:07:44.870Z,66.92
2023-04-30T01:10:18.102Z,67.59
2023-04-30T01:12:57.354Z,68.82
2023-04-30T01:15:32.746Z,67.07
2023-04-30T01:18:09.270Z,68.02
2023-04-30T01:20:48.028Z,68.00
2023-04-30T01:23:29.477Z,68.51
2023-04-30T01:26:09.492Z,66.30
2023-04-30T01:28:44.651Z,67.63
2023-04-30T01:31:20.150Z,69.99
2023-04-30T01:33:53.114Z,69.76
2023-04-30T01:36:31.912Z,70.01
2023-04-30T01:39:14.041Z,67.50
2023-04-30T01:41:52.149Z,68.32
2023-04-30T01:44:37.672Z,68.68
2023-04-30T01:47:14.109Z,68.43
2023-04-30T01:49:53.167Z,70.82
2023-04-30T01:52:32.830Z,69.00
2023-04-30T01:55:07.369Z,68.39
2023-04-30T01:57:42.640Z,69.99
2023-04-30T02:00:17.988Z,70.19
2023-04-30T02:02:52.149Z,70.08
2023-04-30T02:05:25.117Z,71.45
2023-04-30T02:07:57.833Z,71.95
2023-04-30T02:10:30.733Z,70.91
2023-04-30T02:13:04.825Z,71.82
2023-04-30T02:15:39.978Z,73.15
2023-04-30T02:18:13.067Z,72.95
2023-04-30T02:20:46.811Z,71.81
2023-04-30T02:23:19.356Z,74.68
2023-04-30T02:25:52.155Z,74.61
2023-04-30T02:28:25.123Z,73.10
2023-04-30T02:31:00.451Z,72.67
2023-04-30T02:33:35.189Z,75.03
2023-04-30T02:36:08.080Z,73.48
2023-04-30T02:38:40.955Z,75.62
2023-04-30T02:41:13.964Z,74.29
2023-04-30T02:43:46.926Z,74.33
2023-04-30T02:46:21.173Z,73.64
2023-04-30T02:48:53.882Z,72.63
2023-04-30T02:51:26.987Z,73.02
2023-04-30T02:54:01.674Z,73.87
2023-04-30T02:56:35.795Z,75.07
2023-04-30T02:59:08.880Z,74.17
2023-04-30T03:01:43.138Z,75.61
2023-04-30T03:04:15.891Z,75.06
2023-04-30T03:06:49.637Z,75.22
2023-04-30T03:09:22.425Z,75.90
2023-04-30T03:11:55.305Z,76.33
2023-04-30T03:14:28.346Z,74.38
2023-04-30T03:17:02.478Z,74.02
2023-04-30T03:19:35.266Z,76.37
2023-04-30T03:22:08.015Z,76.95
2023-04-30T03:24:40.668Z,76.09
2023-04-30T03:27:14.345Z,75.51
2023-04-30T03:29:47.265Z,75.71
2023-04-30T03:32:21.568Z,76.30
2023-04-30T03:34:54.210Z,75.19
2023-04-30T03:37:27.092Z,75.33
2023-04-30T03:39:59.898Z,76.78
2023-04-30T03:42:33.687Z,76.58
2023-04-30T03:45:08.207Z,76.69
2023-04-30T03:47:43.565Z,77.31
2023-04-30T03:50:18.696Z,78.90
2023-04-30T03:52:51.870Z,77.73
2023-04-30T03:55:24.541Z,77.05
2023-04-30T03:57:57.694Z,76.80
2023-04-30T04:00:31.210Z,75.06
2023-04-30T04:03:05.646Z,75.50
2023-04-30T04:05:38.321Z,75.56
2023-04-30T04:08:11.214Z,74.87
2023-04-30T04:10:43.979Z,77.48
2023-04-30T04:13:16.966Z,79.81
2023-04-30T04:15:50.192Z,77.84
2023-04-30T04:18:24.624Z,79.02
2023-04-30T04:20:57.708Z,78.90
2023-04-30T04:23:30.692Z,80.75
2023-04-30T04:26:03.402Z,77.44
2023-04-30T04:28:36.817Z,78.78
2023-04-30T04:31:10.208Z,80.82
2023-04-30T04:33:44.624Z,79.05
2023-04-30T04:36:17.876Z,77.88
2023-04-30T04:38:50.736Z,79.14
2023-04-30T04:41:24.422Z,80.03
2023-04-30T04:43:57.466Z,77.40
2023-04-30T04:46:31.633Z,76.27
2023-04-30T04:49:06.071Z,76.27
2023-04-30T04:51:39.642Z,77.23
2023-04-30T04:54:12.415Z,79.12
2023-04-30T04:56:45.206Z,78.72
2023-04-30T04:59:18.537Z,79.13
2023-04-30T05:01:51.493Z,81.22
2023-04-30T05:04:25.920Z,80.75
2023-04-30T05:06:58.749Z,80.39
2023-04-30T05:09:31.695Z,80.00
2023-04-30T05:12:04.593Z,80.10
2023-04-30T05:14:37.485Z,78.94
2023-04-30T05:17:10.710Z,78.74
2023-04-30T05:19:47.553Z,78.37
2023-04-30T05:22:20.317Z,78.51
2023-04-30T05:24:53.199Z,79.17
2023-04-30T05:27:27.325Z,78.73
2023-04-30T05:30:00.106Z,81.14
2023-04-30T05:32:33.126Z,78.52
2023-04-30T05:35:08.126Z,77.36
2023-04-30T05:37:41.012Z,77.42
2023-04-30T05:40:14.247Z,77.84
2023-04-30T05:42:46.994Z,79.43
2023-04-30T05:45:19.946Z,78.21
2023-04-30T05:47:52.946Z,76.30
2023-04-30T05:50:27.265Z,75.01
2023-04-30T05:53:00.276Z,75.50
2023-04-30T05:55:33.004Z,74.41
2023-04-30T05:58:06.493Z,73.70
2023-04-30T06:00:39.608Z,74.63
2023-04-30T06:03:12.610Z,77.13
2023-04-30T06:05:47.794Z,77.67
2023-04-30T06:08:20.684Z,76.51
2023-04-30T06:10:53.377Z,76.38
2023-04-30T06:13:26.359Z,74.77
2023-04-30T06:15:59.218Z,74.61
2023-04-30T06:18:32.268Z,75.29
2023-04-30T06:21:06.749Z,76.20
2023-04-30T06:23:39.874Z,74.16
2023-04-30T06:26:15.027Z,73.14
2023-04-30T06:28:48.433Z,73.32
2023-04-30T06:31:21.321Z,72.54
2023-04-30T06:33:54.124Z,72.41
2023-04-30T06:36:28.372Z,73.38
2023-04-30T06:39:01.295Z,73.60
2023-04-30T06:41:33.993Z,72.56
2023-04-30T06:44:06.902Z,74.00
2023-04-30T06:46:39.637Z,73.30
2023-04-30T06:49:12.464Z,72.24
2023-04-30T06:51:46.514Z,71.95
2023-04-30T06:54:19.508Z,68.55
2023-04-30T06:56:52.397Z,68.68
2023-04-30T06:59:25.194Z,68.82
2023-04-30T07:01:58.037Z,70.41
2023-04-30T07:04:31.203Z,68.88
2023-04-30T07:07:05.760Z,65.27
2023-04-30T07:09:38.870Z,67.96
2023-04-30T07:12:13.722Z,70.15
2023-04-30T07:14:46.571Z,67.72
2023-04-30T07:17:19.467Z,62.91
2023-04-30T07:19:52.344Z,69.41
2023-04-30T07:22:27.962Z,62.05
2023-04-30T07:25:01.500Z,68.69
2023-04-30T07:27:34.337Z,63.64
2023-04-30T07:30:08.398Z,65.13
2023-04-30T07:32:42.821Z,67.23
2023-04-30T07:35:15.879Z,68.74
2023-04-30T07:37:50.045Z,68.13
2023-04-30T07:40:34.878Z,65.44
2023-04-30T07:43:08.816Z,59.02
2023-04-30T07:45:42.480Z,58.69
2023-04-30T07:48:15.757Z,61.11
2023-04-30T07:50:50.653Z,64.66
2023-04-30T07:53:26.355Z,59.69
2023-04-30T07:55:59.501Z,62.96
2023-04-30T07:58:32.434Z,61.52
2023-04-30T08:01:05.608Z,62.03
2023-04-30T08:03:39.112Z,65.27
2023-04-30T08:06:12.313Z,70.68
2023-04-30T08:08:47.077Z,71.93
2023-04-30T08:11:21.482Z,55.45
2023-04-30T08:13:54.247Z,55.84
2023-04-30T08:16:27.274Z,58.58
2023-04-30T08:19:00.691Z,55.07
2023-04-30T08:21:33.946Z,65.51
2023-04-30T08:24:08.099Z,62.42
2023-04-30T08:26:41.024Z,67.77
2023-04-30T08:29:13.973Z,67.90
2023-04-30T08:31:46.977Z,70.07
2023-04-30T08:34:19.911Z,64.28
2023-04-30T08:36:53.034Z,54.52
2023-04-30T08:39:27.547Z,50.86
2023-04-30T08:42:03.780Z,63.17
2023-04-30T08:44:39.825Z,51.80
2023-04-30T08:47:14.393Z,55.73
2023-04-30T08:49:48.366Z,50.70
2023-04-30T08:52:22.407Z,54.45
2023-04-30T08:54:58.643Z,51.01
2023-04-30T08:57:31.549Z,50.54
2023-04-30T09:00:06.297Z,53.90
2023-04-30T09:02:42.213Z,52.96
2023-04-30T09:05:16.296Z,52.61
2023-04-30T09:08:02.468Z,51.32
2023-04-30T09:10:37.602Z,50.95
2023-04-30T09:13:12.190Z,51.90
2023-04-30T09:15:45.994Z,50.55
2023-04-30T09:18:19.842Z,50.44
2023-04-30T09:20:56.579Z,51.07
2023-04-30T09:23:30.116Z,50.37
2023-04-30T09:26:04.620Z,50.45
2023-04-30T09:28:37.446Z,51.43
2023-04-30T09:31:20.190Z,54.34
2023-04-30T09:33:53.533Z,51.17
2023-04-30T09:36:27.809Z,50.93
2023-04-30T09:39:09.627Z,52.67
2023-04-30T09:41:46.288Z,55.45
2023-04-30T09:44:29.711Z,52.46
2023-04-30T09:47:02.813Z,57.74
2023-04-30T09:49:38.542Z,57.67
2023-04-30T09:52:11.799Z,53.69
2023-04-30T09:54:45.283Z,50.23
2023-04-30T09:57:22.972Z,50.61
2023-04-30T09:59:57.869Z,49.71
2023-04-30T10:02:30.949Z,49.38
2023-04-30T10:05:04.540Z,50.32
2023-04-30T10:07:39.522Z,47.52
2023-04-30T10:10:12.880Z,47.90
2023-04-30T10:12:49.718Z,46.73
2023-04-30T10:15:26.186Z,46.84
2023-04-30T10:18:02.040Z,46.62
2023-04-30T10:20:36.562Z,47.52
2023-04-30T10:23:09.557Z,46.53
2023-04-30T10:25:43.777Z,45.50
2023-04-30T10:28:18.206Z,44.70
2023-04-30T10:30:53.108Z,46.23
2023-04-30T10:33:30.397Z,45.54
2023-04-30T10:36:05.448Z,46.15
2023-04-30T10:38:39.048Z,45.99
2023-04-30T10:41:11.925Z,46.71
2023-04-30T10:43:48.251Z,44.99
2023-04-30T10:46:24.893Z,48.85
2023-04-30T10:48:57.996Z,46.06
2023-04-30T10:51:47.617Z,46.27
2023-04-30T10:54:24.987Z,46.70
2023-04-30T10:57:11.137Z,46.05
2023-04-30T10:59:46.890Z,47.77
2023-04-30T11:02:19.675Z,48.81
2023-04-30T11:05:11.938Z,46.68
2023-04-30T11:07:50.002Z,46.25
2023-04-30T11:10:23.855Z,48.67
2023-04-30T11:12:57.048Z,50.12
2023-04-30T11:15:34.929Z,49.47
2023-04-30T11:18:08.680Z,44.77
2023-04-30T11:20:42.813Z,43.14
2023-04-30T11:23:25.021Z,44.68
2023-04-30T11:26:01.848Z,44.20
2023-04-30T11:28:36.228Z,44.98
2023-04-30T11:31:10.693Z,44.86
2023-04-30T11:33:43.503Z,45.67
2023-04-30T11:36:17.214Z,43.68
2023-04-30T11:38:50.167Z,43.85
2023-04-30T11:41:27.347Z,48.13
2023-04-30T11:44:00.072Z,46.00
2023-04-30T11:46:34.448Z,43.74
2023-04-30T11:49:07.436Z,44.09
2023-04-30T11:51:42.313Z,47.73
2023-04-30T11:54:15.257Z,44.08
2023-04-30T11:56:49.521Z,47.71
2023-04-30T11:59:22.958Z,49.28
2023-04-30T12:01:57.435Z,50.69
2023-04-30T12:04:30.613Z,46.43
2023-04-30T12:07:04.068Z,42.71
2023-04-30T12:09:51.544Z,47.06
2023-04-30T12:12:28.111Z,43.08
2023-04-30T12:15:11.546Z,42.55
2023-04-30T12:17:46.241Z,42.18
2023-04-30T12:20:18.992Z,41.76
2023-04-30T12:22:52.473Z,42.08
2023-04-30T12:25:25.772Z,42.57
2023-04-30T12:28:00.335Z,43.94
2023-04-30T12:30:33.173Z,47.57
2023-04-30T12:33:07.591Z,45.16
2023-04-30T12:35:43.513Z,44.33
2023-04-30T12:38:17.620Z,42.83
2023-04-30T12:40:50.555Z,43.33
2023-04-30T12:43:23.406Z,43.74
2023-04-30T12:45:57.914Z,45.37
2023-04-30T12:48:44.069Z,44.79
2023-04-30T12:51:20.800Z,49.26
2023-04-30T12:53:53.947Z,43.85
2023-04-30T12:56:26.576Z,43.39
2023-04-30T12:58:59.549Z,43.93
2023-04-30T13:01:33.617Z,50.38
2023-04-30T13:04:08.411Z,44.25
2023-04-30T13:06:41.359Z,43.38
2023-04-30T13:09:14.214Z,49.85
2023-04-30T13:11:47.294Z,47.69
2023-04-30T13:14:20.195Z,48.24
2023-04-30T13:16:53.613Z,49.13
2023-04-30T13:19:27.988Z,47.30
2023-04-30T13:22:01.749Z,44.58
2023-04-30T13:24:34.948Z,49.27
2023-04-30T13:27:08.378Z,44.94
2023-04-30T13:29:41.110Z,47.63
2023-04-30T13:32:13.774Z,46.48
2023-04-30T13:34:48.180Z,45.49
2023-04-30T13:37:21.115Z,46.10
2023-04-30T13:39:54.039Z,47.01
2023-04-30T13:42:26.944Z,49.09
2023-04-30T13:44:59.764Z,47.10
2023-04-30T13:47:32.478Z,46.85
2023-04-30T13:50:08.082Z,44.01
2023-04-30T13:52:41.363Z,49.98
2023-04-30T13:55:14.267Z,43.70
2023-04-30T13:57:47.167Z,46.88
2023-04-30T14:00:21.979Z,45.99
2023-04-30T14:02:54.914Z,43.30
2023-04-30T14:05:29.523Z,50.22
2023-04-30T14:08:02.425Z,44.36
2023-04-30T14:10:35.456Z,50.70
2023-04-30T14:13:08.605Z,51.67
2023-04-30T14:15:41.468Z,49.56
2023-04-30T14:18:14.425Z,42.91
2023-04-30T14:20:48.895Z,43.94
2023-04-30T14:23:21.814Z,44.82
2023-04-30T14:25:55.022Z,49.57
2023-04-30T14:28:27.984Z,46.87
2023-04-30T14:31:00.720Z,48.74
2023-04-30T14:33:33.488Z,43.63
2023-04-30T14:36:07.987Z,48.41
2023-04-30T14:38:41.393Z,48.29
2023-04-30T14:41:14.276Z,46.20
2023-04-30T14:43:46.954Z,43.60
2023-04-30T14:46:19.871Z,47.90
2023-04-30T14:48:52.743Z,44.74
2023-04-30T14:51:28.681Z,51.52
2023-04-30T14:54:02.241Z,44.67
2023-04-30T14:56:35.924Z,43.26
2023-04-30T14:59:08.732Z,43.76
2023-04-30T15:01:41.718Z,46.16
2023-04-30T15:04:14.406Z,46.34
2023-04-30T15:06:48.717Z,43.00
2023-04-30T15:09:21.734Z,47.05
2023-04-30T15:11:54.740Z,47.14
2023-04-30T15:14:27.406Z,50.13
2023-04-30T15:17:00.148Z,46.90
2023-04-30T15:19:32.906Z,45.43
2023-04-30T15:22:07.105Z,49.04
2023-04-30T15:24:39.888Z,50.58
2023-04-30T15:27:13.010Z,49.93
2023-04-30T15:29:46.616Z,51.66
2023-04-30T15:32:19.781Z,51.54
2023-04-30T15:34:52.392Z,47.28
2023-04-30T15:37:27.012Z,48.83
2023-04-30T15:40:00.692Z,50.81
2023-04-30T15:42:34.245Z,53.44
2023-04-30T15:45:07.696Z,54.57
2023-04-30T15:47:41.375Z,55.80
2023-04-30T15:50:14.086Z,55.57
2023-04-30T15:52:48.385Z,55.84
2023-04-30T15:55:21.062Z,54.65
2023-04-30T15:57:53.888Z,53.98
2023-04-30T16:00:27.325Z,54.49
2023-04-30T16:03:00.076Z,54.87
2023-04-30T16:05:33.827Z,54.03
2023-04-30T16:08:08.952Z,55.62
2023-04-30T16:10:42.181Z,54.54
2023-04-30T16:13:15.186Z,55.54
2023-04-30T16:15:48.490Z,56.72
2023-04-30T16:18:21.584Z,59.37
2023-04-30T16:20:54.617Z,61.10
2023-04-30T16:23:29.415Z,66.76
2023-04-30T16:26:02.228Z,73.10
2023-04-30T16:28:35.987Z,77.13
2023-04-30T16:31:09.211Z,81.22
2023-04-30T16:33:42.661Z,83.52
2023-04-30T16:36:15.629Z,86.92
2023-04-30T16:38:51.015Z,88.04
2023-04-30T16:41:23.911Z,87.96
2023-04-30T16:43:56.968Z,86.69
2023-04-30T16:46:30.445Z,88.75
2023-04-30T16:49:03.713Z,87.82
2023-04-30T16:51:36.411Z,87.51
2023-04-30T16:54:10.729Z,91.47
2023-04-30T16:56:43.575Z,93.25
2023-04-30T16:59:16.379Z,88.20
2023-04-30T17:01:49.376Z,89.33
2023-04-30T17:04:22.356Z,86.83
2023-04-30T17:06:55.263Z,89.19
2023-04-30T17:09:29.797Z,90.52
2023-04-30T17:12:03.872Z,98.13
2023-04-30T17:14:36.892Z,100.00
2023-04-30T17:17:09.784Z,100.00
2023-04-30T17:19:42.898Z,99.78
2023-04-30T17:22:19.788Z,100.00
2023-04-30T17:24:54.122Z,100.00
2023-04-30T17:27:27.227Z,100.00
2023-04-30T17:30:00.022Z,100.00
2023-04-30T17:32:33.482Z,100.00
2023-04-30T17:35:07.042Z,100.00
2023-04-30T17:37:39.806Z,100.00
2023-04-30T17:40:14.143Z,100.00
2023-04-30T17:42:46.868Z,100.00
2023-04-30T17:45:20.297Z,100.00
2023-04-30T17:47:53.573Z,98.31
2023-04-30T17:50:27.079Z,100.00
2023-04-30T17:52:59.888Z,100.00
2023-04-30T17:55:34.414Z,100.00
2023-04-30T17:58:10.210Z,100.00
2023-04-30T18:00:44.959Z,100.00
2023-04-30T18:03:18.167Z,100.00
2023-04-30T18:05:51.088Z,100.00
2023-04-30T18:08:23.837Z,100.00
2023-04-30T18:10:58.377Z,100.00
2023-04-30T18:13:31.704Z,100.00
2023-04-30T18:16:04.766Z,100.00
2023-04-30T18:18:38.335Z,100.00
2023-04-30T18:21:11.655Z,100.00
2023-04-30T18:23:44.476Z,100.00
2023-04-30T18:26:20.931Z,100.00
2023-04-30T18:28:54.099Z,100.00
2023-04-30T18:31:26.976Z,100.00
2023-04-30T18:34:00.289Z,100.00
2023-04-30T18:36:34.150Z,100.00
2023-04-30T18:39:07.215Z,100.00
2023-04-30T18:41:41.503Z,100.00
2023-04-30T18:44:14.734Z,100.00
2023-04-30T18:46:47.675Z,100.00
2023-04-30T18:49:20.932Z,100.00
2023-04-30T18:51:55.559Z,100.00
2023-04-30T18:54:30.808Z,100.00
2023-04-30T18:57:06.023Z,100.00
2023-04-30T18:59:39.531Z,100.00
2023-04-30T19:02:12.817Z,100.00
2023-04-30T19:04:46.146Z,100.00
2023-04-30T19:07:19.347Z,100.00
2023-04-30T19:12:27.919Z,100.00
2023-04-30T19:15:01.444Z,100.00
2023-04-30T19:17:35.359Z,100.00
2023-04-30T19:20:09.036Z,100.00
2023-04-30T19:22:42.113Z,100.00
2023-04-30T19:25:15.133Z,100.00
2023-04-30T19:27:49.464Z,100.00
2023-04-30T19:30:22.352Z,100.00
2023-04-30T19:32:55.263Z,100.00
2023-04-30T19:35:28.739Z,100.00
2023-04-30T19:38:01.794Z,100.00
2023-04-30T19:40:34.737Z,100.00
2023-04-30T19:43:09.136Z,100.00
2023-04-30T19:45:44.641Z,100.00
2023-04-30T19:48:17.794Z,100.00
2023-04-30T19:50:53.349Z,100.00
2023-04-30T19:53:26.347Z,98.83
2023-04-30T19:55:59.908Z,97.44
2023-04-30T19:58:34.453Z,100.00
2023-04-30T20:01:07.774Z,100.00
2023-04-30T20:03:42.490Z,100.00
2023-04-30T20:06:15.946Z,100.00
2023-04-30T20:08:49.049Z,100.00
2023-04-30T20:11:22.974Z,100.00
2023-04-30T20:13:57.882Z,100.00
2023-04-30T20:16:30.896Z,95.18
2023-04-30T20:19:04.483Z,97.68
2023-04-30T20:21:49.423Z,100.00
2023-04-30T20:24:32.240Z,100.00
2023-04-30T20:27:07.267Z,97.48
2023-04-30T20:29:41.639Z,93.82
2023-04-30T20:32:14.644Z,100.00
2023-04-30T20:34:47.446Z,100.00
2023-04-30T20:37:20.248Z,100.00
2023-04-30T20:39:53.457Z,96.28
2023-04-30T20:42:27.392Z,98.10
2023-04-30T20:45:03.891Z,93.74
2023-04-30T20:47:38.442Z,93.89
2023-04-30T20:50:11.760Z,100.00
2023-04-30T20:52:44.938Z,100.00
2023-04-30T20:55:17.847Z,98.29
2023-04-30T20:57:50.820Z,99.96
2023-04-30T21:00:25.279Z,93.91
2023-04-30T21:02:58.505Z,93.58
2023-04-30T21:05:32.409Z,95.57
2023-04-30T21:08:05.170Z,99.19
2023-04-30T21:10:38.277Z,100.00
2023-04-30T21:13:12.897Z,100.00
2023-04-30T21:15:48.944Z,100.00
2023-04-30T21:18:21.740Z,100.00
2023-04-30T21:20:56.446Z,100.00
2023-04-30T21:23:29.948Z,95.50
2023-04-30T21:26:02.650Z,92.63
2023-04-30T21:28:35.872Z,95.03
2023-04-30T21:31:10.311Z,100.00
2023-04-30T21:33:42.940Z,100.00
2023-04-30T21:36:16.489Z,100.00
2023-04-30T21:38:49.448Z,98.71
2023-04-30T21:41:24.629Z,96.82
2023-04-30T21:43:57.538Z,100.00
2023-04-30T21:46:31.663Z,100.00
2023-04-30T21:49:04.820Z,100.00
2023-04-30T21:51:38.756Z,100.00
2023-04-30T21:54:11.388Z,100.00
2023-04-30T21:56:44.032Z,100.00
2023-04-30T21:59:16.922Z,100.00
2023-04-30T22:01:51.370Z,100.00
2023-04-30T22:04:25.588Z,100.00
2023-04-30T22:06:58.225Z,100.00
2023-04-30T22:09:31.826Z,100.00
2023-04-30T22:12:07.945Z,100.00
2023-04-30T22:14:41.005Z,100.00
2023-04-30T22:17:15.039Z,100.00
2023-04-30T22:19:47.742Z,100.00
2023-04-30T22:22:20.486Z,100.00
2023-04-30T22:24:53.515Z,100.00
2023-04-30T22:27:26.187Z,100.00
2023-04-30T22:29:59.186Z,100.00
2023-04-30T22:32:33.709Z,100.00
2023-04-30T22:35:07.305Z,100.00
2023-04-30T22:37:40.247Z,100.00
2023-04-30T22:40:13.552Z,100.00
2023-04-30T22:42:46.491Z,100.00
2023-04-30T22:45:19.422Z,100.00
2023-04-30T22:47:54.734Z,100.00
2023-04-30T22:50:27.600Z,100.00
2023-04-30T22:53:00.364Z,100.00
2023-04-30T22:55:33.199Z,100.00
2023-04-30T22:58:05.855Z,100.00
2023-04-30T23:00:38.815Z,100.00
2023-04-30T23:03:13.082Z,100.00
2023-04-30T23:05:49.405Z,100.00
2023-04-30T23:08:22.035Z,100.00
2023-04-30T23:10:55.727Z,100.00
2023-04-30T23:13:28.480Z,100.00
2023-04-30T23:16:02.099Z,100.00
2023-04-30T23:18:41.503Z,100.00
2023-04-30T23:21:14.169Z,100.00
2023-04-30T23:23:47.170Z,100.00
2023-04-30T23:26:19.855Z,100.00
2023-04-30T23:28:53.501Z,100.00
2023-04-30T23:31:27.298Z,100.00
2023-04-30T23:34:01.890Z,100.00
2023-04-30T23:36:34.645Z,100.00
2023-04-30T23:39:07.443Z,100.00
2023-04-30T23:41:40.180Z,100.00
2023-04-30T23:44:13.441Z,100.00
2023-04-30T23:46:46.875Z,100.00
2023-04-30T23:49:24.570Z,100.00
2023-04-30T23:51:57.403Z,100.00
2023-04-30T23:54:30.352Z,100.00
2023-04-30T23:57:03.422Z,100.00
2023-04-30T23:59:36.701Z,100.00
